KPAM/PAM METAR and TAF weather

Enter ICAO airport designator
Station Type Date Time Source
KPAM METAR 2020/01/20 21:56 UTC NOAA

KPAM 202156Z AUTO 35009KT 10SM CLR 10/M04 A3029 RMK AO2 SLP260 T00971039 $


Station Type Date Time Source
KPAM Decoded METAR 2020/01/20 21:56 UTC NOAA

Tyndall Air Force Base, FL, United States (KPAM) 30-04N 085-35W 13M
Jan 20, 2020 - 04:56 PM EST / 2020.01.20 2156 UTC
Wind: from the N (350 degrees) at 10 MPH (9 KT):0
Visibility: 10 mile(s):0
Sky conditions: clear
Temperature: 49.5 F (9.7 C)
Dew Point: 25.0 F (-3.9 C)
Relative Humidity: 38%
Pressure (altimeter): 30.29 in. Hg (1025 hPa)
ob: KPAM 202156Z AUTO 35009KT 10SM CLR 10/M04 A3029 RMK AO2 SLP260 T00971039
cycle: 22

Station Type Date Time Source
KPAM TAF 2020/01/17 19:15 UTC NOAA

TAF KPAM 171900Z 1719/1901 09010G15KT 9999 FEW250 QNH3032INS
BECMG 1802/1803 10009KT 9999 SCT035 SCT250 QNH3030INS
BECMG 1814/1815 13010G15KT 9999 BKN030 QNH3020INS
BECMG 1821/1822 15010G15KT 6000 -SHRA VCTS BKN020CB QNH3017INS TX22/1720Z TN14/1811Z LAST NO
AMDS AFT 1721 NEXT 2111

Example: see airport list